createdAt,value
2018-04-23T00:00:26.554Z,100285.79
2018-04-23T00:02:52.393Z,100283.45
2018-04-23T00:05:18.224Z,100279.56
2018-04-23T00:07:44.098Z,100278.44
2018-04-23T00:10:09.942Z,100275.67
2018-04-23T00:12:35.811Z,100283.91
2018-04-23T00:15:01.638Z,100272.02
2018-04-23T00:17:27.490Z,100272.53
2018-04-23T00:19:53.322Z,100266.54
2018-04-23T00:22:19.218Z,100270.02
2018-04-23T00:24:45.086Z,100267.63
2018-04-23T00:27:10.922Z,100269.17
2018-04-23T00:29:36.757Z,100268.09
2018-04-23T00:32:02.591Z,100277.87
2018-04-23T00:34:29.275Z,100274.11
2018-04-23T00:36:55.127Z,100274.37
2018-04-23T00:39:21.000Z,100270.05
2018-04-23T00:41:46.855Z,100271.29
2018-04-23T00:44:12.691Z,100272.01
2018-04-23T00:46:38.549Z,100267.25
2018-04-23T00:49:04.397Z,100265.73
2018-04-23T00:51:30.236Z,100268.94
2018-04-23T00:53:56.070Z,100261.05
2018-04-23T00:56:21.916Z,100263.52
2018-04-23T00:58:47.737Z,100260.14
2018-04-23T01:01:13.580Z,100255.84
2018-04-23T01:03:39.424Z,100255.75
2018-04-23T01:06:05.293Z,100259.09
2018-04-23T01:08:31.140Z,100255.21
2018-04-23T01:10:56.994Z,100254.50
2018-04-23T01:13:22.829Z,100256.70
2018-04-23T01:15:48.672Z,100263.50
2018-04-23T01:18:14.535Z,100259.22
2018-04-23T01:20:40.382Z,100256.66
2018-04-23T01:23:06.228Z,100257.88
2018-04-23T01:25:32.071Z,100255.44
2018-04-23T01:27:57.923Z,100263.95
2018-04-23T01:30:23.753Z,100270.59
2018-04-23T01:32:49.613Z,100273.05
2018-04-23T01:35:15.459Z,100270.90
2018-04-23T01:37:41.312Z,100278.11
2018-04-23T01:40:07.158Z,100274.95
2018-04-23T01:42:32.986Z,100276.01
2018-04-23T01:44:58.822Z,100275.94
2018-04-23T01:47:24.653Z,100268.21
2018-04-23T01:49:50.504Z,100269.22
2018-04-23T01:52:16.355Z,100271.66
2018-04-23T01:54:42.193Z,100276.44
2018-04-23T01:57:08.035Z,100279.83
2018-04-23T01:59:33.903Z,100280.09
2018-04-23T02:01:59.746Z,100277.59
2018-04-23T02:04:25.576Z,100280.59
2018-04-23T02:06:51.421Z,100275.77
2018-04-23T02:09:17.247Z,100273.52
2018-04-23T02:11:43.103Z,100270.76
2018-04-23T02:14:08.949Z,100270.26
2018-04-23T02:16:34.812Z,100264.04
2018-04-23T02:19:00.634Z,100269.19
2018-04-23T02:21:27.043Z,100257.25
2018-04-23T02:23:52.889Z,100261.06
2018-04-23T02:26:18.727Z,100261.89
2018-04-23T02:28:44.573Z,100267.94
2018-04-23T02:31:10.443Z,100266.59
2018-04-23T02:33:36.299Z,100269.38
2018-04-23T02:36:02.154Z,100269.80
2018-04-23T02:38:27.989Z,100272.34
2018-04-23T02:40:53.840Z,100273.33
2018-04-23T02:43:19.718Z,100275.07
2018-04-23T02:45:45.566Z,100276.96
2018-04-23T02:48:11.446Z,100276.59
2018-04-23T02:50:37.319Z,100273.45
2018-04-23T02:53:03.149Z,100283.73
2018-04-23T02:55:28.994Z,100286.05
2018-04-23T02:57:54.828Z,100292.64
2018-04-23T03:00:20.655Z,100290.91
2018-04-23T03:02:46.503Z,100286.37
2018-04-23T03:05:12.353Z,100286.80
2018-04-23T03:07:38.209Z,100287.63
2018-04-23T03:10:04.076Z,100288.61
2018-04-23T03:12:29.914Z,100288.43
2018-04-23T03:14:55.749Z,100287.36
2018-04-23T03:17:21.633Z,100283.81
2018-04-23T03:19:47.501Z,100285.17
2018-04-23T03:22:13.375Z,100288.25
2018-04-23T03:24:39.210Z,100291.50
2018-04-23T03:27:05.068Z,100290.48
2018-04-23T03:29:30.929Z,100288.08
2018-04-23T03:31:56.776Z,100306.50
2018-04-23T03:34:22.612Z,100309.67
2018-04-23T03:36:48.463Z,100325.22
2018-04-23T03:39:14.335Z,100345.36
2018-04-23T03:41:40.219Z,100363.86
2018-04-23T03:44:06.095Z,100365.69
2018-04-23T03:46:31.948Z,100369.10
2018-04-23T03:48:57.807Z,100376.20
2018-04-23T03:51:23.635Z,100374.66
2018-04-23T03:53:49.497Z,100380.33
2018-04-23T03:56:15.327Z,100380.89
2018-04-23T03:58:41.188Z,100395.37
2018-04-23T04:01:07.013Z,100392.37
2018-04-23T04:03:32.862Z,100396.10
2018-04-23T04:05:58.688Z,100395.59
2018-04-23T04:08:24.533Z,100397.30
2018-04-23T04:10:50.392Z,100394.80
2018-04-23T04:13:28.457Z,100380.02
2018-04-23T04:16:06.565Z,100378.58
2018-04-23T04:18:44.533Z,100358.08
2018-04-23T04:21:10.417Z,114399.55
2018-04-23T04:23:36.288Z,114399.55
2018-04-23T04:26:02.187Z,114399.55
2018-04-23T04:28:28.045Z,114399.55
2018-04-23T04:30:55.713Z,114399.55
2018-04-23T04:33:21.575Z,114399.55
2018-04-23T04:35:47.471Z,114399.55
2018-04-23T04:38:13.398Z,114399.55
2018-04-23T04:40:39.216Z,114399.55
2018-04-23T04:43:05.098Z,114399.55
2018-04-23T04:45:30.971Z,114399.55
2018-04-23T04:47:56.840Z,114399.55
2018-04-23T04:50:22.722Z,114399.55
2018-04-23T04:52:48.607Z,114399.55
2018-04-23T04:55:14.450Z,114399.55
2018-04-23T04:57:40.302Z,114399.55
2018-04-23T05:00:06.166Z,114399.55
2018-04-23T05:02:32.036Z,114399.55
2018-04-23T05:04:57.906Z,114399.55
2018-04-23T05:07:23.777Z,114399.55
2018-04-23T05:09:50.503Z,114399.55
2018-04-23T05:12:16.388Z,114399.55
2018-04-23T05:14:42.264Z,114399.55
2018-04-23T05:17:08.123Z,114399.55
2018-04-23T05:19:34.035Z,114399.55
2018-04-23T05:21:59.899Z,114399.55
2018-04-23T05:24:25.789Z,114399.55
2018-04-23T05:26:51.659Z,114399.55
2018-04-23T05:29:17.522Z,114399.55
2018-04-23T05:31:43.390Z,114399.55
2018-04-23T05:34:09.250Z,114399.55
2018-04-23T05:36:35.127Z,114399.55
2018-04-23T05:39:00.998Z,114399.55
2018-04-23T05:41:26.883Z,114399.55
2018-04-23T05:43:52.745Z,114399.55
2018-04-23T05:46:18.636Z,114399.55
2018-04-23T05:48:44.505Z,114399.55
2018-04-23T05:51:10.410Z,114399.55
2018-04-23T05:53:36.268Z,114399.55
2018-04-23T05:56:02.156Z,114399.55
2018-04-23T05:58:28.012Z,114399.55
2018-04-23T06:00:53.865Z,114399.55
2018-04-23T06:03:19.724Z,114399.55
2018-04-23T06:05:45.596Z,114399.55
2018-04-23T06:08:11.475Z,114399.55
2018-04-23T06:10:37.330Z,114399.55
2018-04-23T06:13:03.191Z,114399.55
2018-04-23T06:15:29.162Z,114399.55
2018-04-23T06:17:55.064Z,114399.55
2018-04-23T06:20:20.935Z,114399.55
2018-04-23T06:22:46.829Z,114399.55
2018-04-23T06:25:12.768Z,114399.55
2018-04-23T06:27:38.626Z,114399.55
2018-04-23T06:30:04.524Z,114399.55
2018-04-23T06:32:30.417Z,114399.55
2018-04-23T06:34:56.285Z,114399.55
2018-04-23T06:37:22.160Z,114399.55
2018-04-23T06:39:48.030Z,114399.55
2018-04-23T06:42:13.896Z,114399.55
2018-04-23T06:44:39.764Z,114399.55
2018-04-23T06:47:05.644Z,114399.55
2018-04-23T06:49:31.512Z,114399.55
2018-04-23T06:51:57.392Z,114399.55
2018-04-23T06:54:23.264Z,114399.55
2018-04-23T06:56:49.153Z,114399.55
2018-04-23T06:59:15.044Z,114399.55
2018-04-23T07:01:40.937Z,114399.55
2018-04-23T07:04:06.815Z,114399.55
2018-04-23T07:06:32.657Z,114399.55
2018-04-23T07:08:58.547Z,114399.55
2018-04-23T07:11:24.431Z,114399.55
2018-04-23T07:13:50.306Z,114399.55
2018-04-23T07:16:17.721Z,114399.55
2018-04-23T07:18:43.597Z,114399.55
2018-04-23T07:21:09.481Z,114399.55
2018-04-23T07:23:35.362Z,114399.55
2018-04-23T07:26:01.230Z,114399.55
2018-04-23T07:28:27.110Z,114399.55
2018-04-23T07:30:52.971Z,114399.55
2018-04-23T07:33:18.855Z,114399.55
2018-04-23T07:35:44.715Z,114399.55
2018-04-23T07:38:10.569Z,114399.55
2018-04-23T07:40:36.452Z,114399.55
2018-04-23T07:43:02.313Z,114399.55
2018-04-23T07:45:28.186Z,114399.55
2018-04-23T07:47:54.030Z,114399.55
2018-04-23T07:50:19.890Z,114399.55
2018-04-23T07:52:45.741Z,114399.55
2018-04-23T07:55:11.611Z,114399.55
2018-04-23T07:57:37.475Z,114399.55
2018-04-23T08:00:03.429Z,114399.55
2018-04-23T08:02:29.237Z,114399.55
2018-04-23T08:04:55.101Z,114399.55
2018-04-23T08:07:20.994Z,114399.55
2018-04-23T08:09:46.867Z,114399.55
2018-04-23T08:12:12.783Z,114399.55
2018-04-23T08:14:38.655Z,114399.55
2018-04-23T08:17:04.539Z,114399.55
2018-04-23T08:19:30.424Z,114399.55
2018-04-23T08:21:56.329Z,114399.55
2018-04-23T08:24:22.216Z,114399.55
2018-04-23T08:26:48.102Z,114399.55
2018-04-23T08:29:13.966Z,114399.55
2018-04-23T08:31:39.858Z,114399.55
2018-04-23T08:34:05.738Z,114399.55
2018-04-23T08:36:31.601Z,114399.55
2018-04-23T08:38:57.468Z,114399.55
2018-04-23T08:41:23.323Z,114399.55
2018-04-23T08:43:49.246Z,114399.55
2018-04-23T08:46:15.073Z,114399.55
2018-04-23T08:48:40.990Z,114399.55
2018-04-23T08:51:06.857Z,114399.55
2018-04-23T08:53:32.745Z,114399.55
2018-04-23T08:55:58.629Z,114399.55
2018-04-23T08:58:24.507Z,114399.55
2018-04-23T09:00:50.407Z,114399.55
2018-04-23T09:03:16.265Z,114399.55
2018-04-23T09:05:42.146Z,114399.55
2018-04-23T09:08:08.039Z,114399.55
2018-04-23T09:10:33.924Z,114399.55
2018-04-23T09:12:59.787Z,114399.55
2018-04-23T09:15:25.688Z,114399.55
2018-04-23T09:17:51.604Z,114399.55
2018-04-23T09:20:17.440Z,114399.55
2018-04-23T09:22:43.323Z,114399.55
2018-04-23T09:25:09.257Z,114399.55
2018-04-23T09:27:35.132Z,114399.55
2018-04-23T09:30:01.035Z,114399.55
2018-04-23T09:32:26.914Z,114399.55
2018-04-23T09:34:52.808Z,114399.55
2018-04-23T09:37:18.715Z,114399.55
2018-04-23T09:39:44.570Z,114399.55
2018-04-23T09:42:10.402Z,114399.55
2018-04-23T09:44:36.340Z,114399.55
2018-04-23T09:47:02.148Z,114399.55
2018-04-23T09:49:27.985Z,114399.55
2018-04-23T09:51:53.893Z,114399.55
2018-04-23T09:54:19.770Z,114399.55
2018-04-23T09:56:45.620Z,114399.55
2018-04-23T09:59:11.479Z,114399.55
2018-04-23T10:01:37.386Z,114399.55
2018-04-23T10:04:05.262Z,114399.55
2018-04-23T10:06:31.133Z,114399.55
2018-04-23T10:08:57.013Z,114399.55
2018-04-23T10:11:22.932Z,114399.55
2018-04-23T10:13:48.790Z,114399.55
2018-04-23T10:16:14.666Z,114399.55
2018-04-23T10:18:40.545Z,114399.55
2018-04-23T10:21:06.424Z,114399.55
2018-04-23T10:23:32.302Z,114399.55
2018-04-23T10:25:58.170Z,114399.55
2018-04-23T10:28:24.850Z,114399.55
2018-04-23T10:30:51.598Z,114399.55
2018-04-23T10:33:17.465Z,100549.95
2018-04-23T10:35:43.351Z,114399.55
2018-04-23T10:38:09.244Z,114399.55
2018-04-23T10:40:35.126Z,114399.55
2018-04-23T10:43:00.999Z,114399.55
2018-04-23T10:45:26.880Z,114399.55
2018-04-23T10:47:52.760Z,114399.55
2018-04-23T10:50:18.621Z,114399.55
2018-04-23T10:52:44.518Z,114399.55
2018-04-23T10:55:10.379Z,114399.55
2018-04-23T10:57:36.240Z,114399.55
2018-04-23T11:00:02.173Z,114399.55
2018-04-23T11:02:28.042Z,114399.55
2018-04-23T11:04:53.910Z,114399.55
2018-04-23T11:07:19.770Z,114399.55
2018-04-23T11:09:45.700Z,114399.55
2018-04-23T11:12:11.502Z,114399.55
2018-04-23T11:14:37.400Z,114399.55
2018-04-23T11:17:03.271Z,114399.55
2018-04-23T11:19:29.154Z,114399.55
2018-04-23T11:21:55.023Z,114399.55
2018-04-23T11:24:20.919Z,114399.55
2018-04-23T11:26:46.784Z,114399.55
2018-04-23T11:29:12.650Z,114399.55
2018-04-23T11:31:38.487Z,114399.55
2018-04-23T11:34:04.328Z,114399.55
2018-04-23T11:36:30.184Z,114399.55
2018-04-23T11:38:56.033Z,114399.55
2018-04-23T11:41:21.883Z,114399.55
2018-04-23T11:43:47.716Z,114399.55
2018-04-23T11:46:13.587Z,114399.55
2018-04-23T11:48:39.453Z,114399.55
2018-04-23T11:51:05.288Z,114399.55
2018-04-23T11:53:31.155Z,114399.55
2018-04-23T11:55:57.021Z,114399.55
2018-04-23T11:58:22.906Z,114399.55
2018-04-23T12:00:48.739Z,114399.55
2018-04-23T12:03:14.586Z,114399.55
2018-04-23T12:05:40.427Z,114399.55
2018-04-23T12:08:06.288Z,114399.55
2018-04-23T12:10:32.144Z,114399.55
2018-04-23T12:12:58.025Z,114399.55
2018-04-23T12:15:23.880Z,114399.55
2018-04-23T12:17:49.699Z,114399.55
2018-04-23T12:20:15.551Z,114399.55
2018-04-23T12:22:41.431Z,114399.55
2018-04-23T12:25:22.237Z,114399.55
2018-04-23T12:27:48.087Z,114399.55
2018-04-23T12:30:13.925Z,114399.55
2018-04-23T12:32:39.749Z,114399.55
2018-04-23T12:35:05.662Z,114399.55
2018-04-23T12:37:31.520Z,114399.55
2018-04-23T12:39:57.377Z,114399.55
2018-04-23T12:42:23.233Z,114399.55
2018-04-23T12:44:49.105Z,114399.55
2018-04-23T12:47:14.940Z,100566.66
2018-04-23T12:49:40.777Z,114399.55
2018-04-23T12:52:06.647Z,114399.55
2018-04-23T12:54:32.480Z,114399.55
2018-04-23T12:56:58.351Z,114399.55
2018-04-23T12:59:24.224Z,114399.55
2018-04-23T13:01:50.076Z,114399.55
2018-04-23T13:04:15.953Z,114399.55
2018-04-23T13:06:41.830Z,114399.55
2018-04-23T13:09:07.675Z,114399.55
2018-04-23T13:11:33.531Z,114399.55
2018-04-23T13:13:59.395Z,100571.32
2018-04-23T13:16:25.248Z,100565.73
2018-04-23T13:18:51.122Z,100563.84
2018-04-23T13:21:17.026Z,100560.91
2018-04-23T13:23:42.902Z,100565.27
2018-04-23T13:26:08.769Z,100551.18
2018-04-23T13:28:34.622Z,100548.52
2018-04-23T13:31:00.484Z,100554.41
2018-04-23T13:33:26.333Z,100559.12
2018-04-23T13:35:52.190Z,100568.37
2018-04-23T13:38:18.045Z,100556.46
2018-04-23T13:40:43.886Z,100558.33
2018-04-23T13:43:09.735Z,100562.80
2018-04-23T13:45:35.582Z,100551.45
2018-04-23T13:48:01.414Z,100561.14
2018-04-23T13:50:27.271Z,100571.69
2018-04-23T13:52:53.155Z,100546.24
2018-04-23T13:55:19.019Z,100544.57
2018-04-23T13:57:44.894Z,100540.73
2018-04-23T14:00:10.732Z,100555.26
2018-04-23T14:02:36.577Z,100546.96
2018-04-23T14:05:02.423Z,100551.56
2018-04-23T14:07:28.273Z,100550.75
2018-04-23T14:09:54.105Z,100534.66
2018-04-23T14:12:19.950Z,100532.09
2018-04-23T14:17:38.783Z,100543.64
2018-04-23T14:20:04.655Z,100539.94
2018-04-23T14:22:30.540Z,100540.47
2018-04-23T14:24:56.384Z,100532.04
2018-04-23T14:27:22.234Z,100524.37
2018-04-23T14:29:48.119Z,100524.03
2018-04-23T14:32:13.971Z,100533.55
2018-04-23T14:34:39.809Z,100533.09
2018-04-23T14:37:05.643Z,100535.99
2018-04-23T14:39:31.520Z,100535.37
2018-04-23T14:41:57.346Z,100535.94
2018-04-23T14:44:23.200Z,100530.66
2018-04-23T14:46:49.041Z,100524.64
2018-04-23T14:49:14.910Z,100520.27
2018-04-23T14:51:40.741Z,100523.04
2018-04-23T14:54:06.599Z,100525.88
2018-04-23T14:56:32.463Z,100524.84
2018-04-23T14:58:58.300Z,100542.22
2018-04-23T15:01:24.177Z,100539.38
2018-04-23T15:03:50.033Z,100543.57
2018-04-23T15:06:15.920Z,100541.25
2018-04-23T15:08:41.780Z,100553.07
2018-04-23T15:11:07.633Z,100557.48
2018-04-23T15:13:33.531Z,100561.45
2018-04-23T15:15:59.372Z,100549.60
2018-04-23T15:18:25.274Z,100550.23
2018-04-23T15:20:51.146Z,100553.91
2018-04-23T15:23:17.004Z,100548.93
2018-04-23T15:25:42.876Z,100550.66
2018-04-23T15:28:08.703Z,100568.48
2018-04-23T15:30:34.575Z,100563.05
2018-04-23T15:33:00.459Z,100556.69
2018-04-23T15:35:26.347Z,100554.75
2018-04-23T15:37:52.205Z,100569.58
2018-04-23T15:40:18.080Z,100550.72
2018-04-23T15:42:43.934Z,100565.38
2018-04-23T15:45:09.807Z,100574.43
2018-04-23T15:47:35.687Z,100572.34
2018-04-23T15:50:01.543Z,100575.30
2018-04-23T15:52:27.439Z,100564.91
2018-04-23T15:54:53.291Z,100560.45
2018-04-23T15:57:19.137Z,100552.82
2018-04-23T15:59:45.002Z,100546.42
2018-04-23T16:02:10.878Z,100557.95
2018-04-23T16:04:36.713Z,100550.42
2018-04-23T16:07:02.568Z,100548.73
2018-04-23T16:09:28.435Z,100548.04
2018-04-23T16:11:54.292Z,100545.70
2018-04-23T16:14:20.120Z,100548.45
2018-04-23T16:16:45.979Z,100557.48
2018-04-23T16:19:11.864Z,100565.38
2018-04-23T16:21:37.678Z,100566.91
2018-04-23T16:24:03.525Z,100556.92
2018-04-23T16:26:29.376Z,100552.13
2018-04-23T16:28:55.250Z,100549.09
2018-04-23T16:31:21.118Z,100549.15
2018-04-23T16:33:47.018Z,100563.05
2018-04-23T16:36:12.893Z,100565.58
2018-04-23T16:38:38.783Z,100563.03
2018-04-23T16:41:04.656Z,100561.86
2018-04-23T16:43:30.550Z,100560.01
2018-04-23T16:45:56.426Z,100559.15
2018-04-23T16:48:22.269Z,100567.56
2018-04-23T16:50:48.120Z,100568.77
2018-04-23T16:53:13.961Z,100571.98
2018-04-23T16:55:39.857Z,100589.37
2018-04-23T16:58:05.773Z,100592.87
2018-04-23T17:00:31.644Z,100577.83
2018-04-23T17:02:57.500Z,100584.62
2018-04-23T17:05:23.345Z,100585.87
2018-04-23T17:07:49.190Z,100591.99
2018-04-23T17:10:15.077Z,100592.13
2018-04-23T17:12:41.010Z,100592.08
2018-04-23T17:15:06.916Z,100593.36
2018-04-23T17:17:32.771Z,100592.48
2018-04-23T17:19:58.598Z,100604.59
2018-04-23T17:22:25.337Z,100606.05
2018-04-23T17:24:51.220Z,100609.59
2018-04-23T17:27:17.133Z,100606.78
2018-04-23T17:29:43.061Z,100610.36
2018-04-23T17:32:08.952Z,100609.38
2018-04-23T17:34:34.815Z,100612.23
2018-04-23T17:37:00.694Z,100615.35
2018-04-23T17:39:26.558Z,100618.98
2018-04-23T17:41:52.588Z,100624.59
2018-04-23T17:44:18.468Z,100619.19
2018-04-23T17:46:44.331Z,100622.70
2018-04-23T17:49:10.182Z,100626.72
2018-04-23T17:51:36.162Z,100625.37
2018-04-23T17:54:02.115Z,100629.20
2018-04-23T17:56:28.059Z,100627.86
2018-04-23T17:58:53.943Z,100633.39
2018-04-23T18:01:19.797Z,100640.41
2018-04-23T18:03:45.667Z,100635.39
2018-04-23T18:06:11.730Z,100632.01
2018-04-23T18:08:37.634Z,100638.08
2018-04-23T18:11:03.562Z,100645.84
2018-04-23T18:13:29.457Z,100654.72
2018-04-23T18:15:55.392Z,100656.41
2018-04-23T18:18:21.265Z,100662.14
2018-04-23T18:20:47.139Z,100665.81
2018-04-23T18:23:13.397Z,100668.33
2018-04-23T18:25:39.265Z,100672.98
2018-04-23T18:28:06.666Z,100672.50
2018-04-23T18:30:32.550Z,100671.14
2018-04-23T18:32:58.431Z,100675.01
2018-04-23T18:35:24.352Z,100672.79
2018-04-23T18:37:51.721Z,100675.90
2018-04-23T18:40:17.605Z,100674.27
2018-04-23T18:42:43.474Z,100686.19
2018-04-23T18:45:09.421Z,100689.61
2018-04-23T18:47:35.366Z,100692.73
2018-04-23T18:50:01.270Z,100693.83
2018-04-23T18:52:28.099Z,100703.89
2018-04-23T18:54:54.038Z,100701.80
2018-04-23T18:57:20.093Z,100701.80
2018-04-23T18:59:45.946Z,100707.60
2018-04-23T19:02:11.824Z,100709.89
2018-04-23T19:04:37.803Z,100708.89
2018-04-23T19:07:03.691Z,100709.28
2018-04-23T19:09:29.603Z,114399.55
2018-04-23T19:11:55.458Z,114399.55
2018-04-23T19:14:21.347Z,114399.55
2018-04-23T19:16:47.286Z,114399.55
2018-04-23T19:19:13.215Z,114399.55
2018-04-23T19:21:39.113Z,114399.55
2018-04-23T19:24:05.655Z,100731.09
2018-04-23T19:26:31.566Z,100734.25
2018-04-23T19:28:57.414Z,100738.16
2018-04-23T19:31:23.326Z,100745.21
2018-04-23T19:33:49.241Z,100744.77
2018-04-23T19:36:15.166Z,100742.44
2018-04-23T19:38:41.105Z,100745.30
2018-04-23T19:41:06.919Z,100750.54
2018-04-23T19:43:32.843Z,100754.32
2018-04-23T19:45:59.940Z,100747.89
2018-04-23T19:48:25.835Z,100749.41
2018-04-23T19:50:51.695Z,100747.41
2018-04-23T19:53:17.594Z,100752.30
2018-04-23T19:55:43.505Z,100742.67
2018-04-23T19:58:09.496Z,100743.70
2018-04-23T20:00:35.407Z,100742.19
2018-04-23T20:03:01.342Z,100747.62
2018-04-23T20:05:27.225Z,100751.59
2018-04-23T20:07:53.211Z,100745.98
2018-04-23T20:10:19.093Z,100745.00
2018-04-23T20:12:44.972Z,100749.64
2018-04-23T20:15:10.873Z,100754.30
2018-04-23T20:17:36.801Z,100753.38
2018-04-23T20:20:02.712Z,100755.87
2018-04-23T20:22:28.637Z,100757.16
2018-04-23T20:24:54.553Z,100762.53
2018-04-23T20:27:20.455Z,100758.81
2018-04-23T20:29:46.388Z,100762.65
2018-04-23T20:32:12.268Z,100764.95
2018-04-23T20:34:38.144Z,100761.59
2018-04-23T20:37:04.003Z,100767.70
2018-04-23T20:39:29.928Z,100767.44
2018-04-23T20:41:55.869Z,100771.23
2018-04-23T20:44:21.776Z,100776.60
2018-04-23T20:46:47.695Z,100768.84
2018-04-23T20:49:13.575Z,100761.98
2018-04-23T20:51:39.481Z,100773.70
2018-04-23T20:54:05.349Z,100774.63
2018-04-23T20:56:31.202Z,100772.64
2018-04-23T20:58:57.129Z,100773.56
2018-04-23T21:01:23.026Z,100774.61
2018-04-23T21:03:48.911Z,100775.66
2018-04-23T21:06:14.807Z,100776.39
2018-04-23T21:08:40.651Z,100777.98
2018-04-23T21:11:06.579Z,100776.11
2018-04-23T21:13:32.471Z,100774.19
2018-04-23T21:15:58.390Z,100776.77
2018-04-23T21:18:24.302Z,100775.05
2018-04-23T21:20:50.161Z,100776.16
2018-04-23T21:23:16.039Z,100778.44
2018-04-23T21:25:41.898Z,100779.66
2018-04-23T21:28:07.834Z,100786.64
2018-04-23T21:30:33.667Z,100786.20
2018-04-23T21:32:59.565Z,100791.58
2018-04-23T21:35:25.414Z,100795.56
2018-04-23T21:37:51.255Z,100797.89
2018-04-23T21:40:17.115Z,100793.63
2018-04-23T21:42:42.998Z,100790.46
2018-04-23T21:45:08.849Z,100797.62
2018-04-23T21:47:34.694Z,100797.97
2018-04-23T21:50:00.543Z,100795.53
2018-04-23T21:52:26.411Z,100798.50
2018-04-23T21:54:52.271Z,100805.63
2018-04-23T21:57:18.119Z,100812.51
2018-04-23T21:59:43.988Z,100807.59
2018-04-23T22:02:09.845Z,100807.28
2018-04-23T22:04:35.712Z,100805.91
2018-04-23T22:07:01.543Z,100813.48
2018-04-23T22:09:27.395Z,100808.89
2018-04-23T22:11:53.233Z,100811.05
2018-04-23T22:14:19.202Z,100811.73
2018-04-23T22:16:45.059Z,100813.42
2018-04-23T22:19:10.907Z,100816.95
2018-04-23T22:21:36.754Z,100820.45
2018-04-23T22:24:02.605Z,100814.98
2018-04-23T22:26:29.251Z,100818.11
2018-04-23T22:28:55.101Z,100819.47
2018-04-23T22:31:20.940Z,100815.49
2018-04-23T22:33:46.783Z,100820.55
2018-04-23T22:36:12.630Z,100825.69
2018-04-23T22:38:38.519Z,100824.56
2018-04-23T22:41:04.354Z,100829.17
2018-04-23T22:43:30.225Z,100824.78
2018-04-23T22:45:56.119Z,100828.83
2018-04-23T22:48:21.991Z,100824.52
2018-04-23T22:50:47.851Z,100825.44
2018-04-23T22:53:13.690Z,100827.72
2018-04-23T22:55:39.521Z,100819.78
2018-04-23T22:58:05.367Z,100817.68
2018-04-23T23:00:31.233Z,100830.94
2018-04-23T23:02:57.086Z,100829.97
2018-04-23T23:05:22.912Z,100837.25
2018-04-23T23:07:49.431Z,100835.63
2018-04-23T23:10:15.253Z,100836.64
2018-04-23T23:12:41.114Z,100841.51
2018-04-23T23:15:06.963Z,100836.50
2018-04-23T23:17:32.811Z,100838.60
2018-04-23T23:19:58.670Z,100842.44
2018-04-23T23:22:24.523Z,100842.69
2018-04-23T23:24:50.382Z,100837.03
2018-04-23T23:27:16.234Z,100840.97
2018-04-23T23:29:42.096Z,100837.73
2018-04-23T23:32:07.941Z,100842.03
2018-04-23T23:34:33.819Z,100843.74
2018-04-23T23:36:59.667Z,100836.45
2018-04-23T23:39:25.511Z,100842.03
2018-04-23T23:41:52.645Z,100839.21
2018-04-23T23:44:18.484Z,100843.95
2018-04-23T23:46:44.344Z,100847.11
2018-04-23T23:49:10.190Z,100846.03
2018-04-23T23:51:36.039Z,100850.06
2018-04-23T23:54:01.879Z,100853.97
2018-04-23T23:56:27.724Z,100857.75
2018-04-23T23:58:53.582Z,100857.23
